sensor_id;sensor_type;location;lat;lon;timestamp;P1;durP1;ratioP1;P2;durP2;ratioP2
80101;SDS011;69407;44.966;19.622;2023-12-20T00:02:08;58.97;;;31.65;;
80101;SDS011;69407;44.966;19.622;2023-12-20T00:04:34;62.28;;;29.45;;
80101;SDS011;69407;44.966;19.622;2023-12-20T00:06:59;63.83;;;31.85;;
80101;SDS011;69407;44.966;19.622;2023-12-20T00:09:25;62.40;;;31.80;;
80101;SDS011;69407;44.966;19.622;2023-12-20T00:11:50;67.57;;;33.70;;
80101;SDS011;69407;44.966;19.622;2023-12-20T00:14:16;60.95;;;32.17;;
80101;SDS011;69407;44.966;19.622;2023-12-20T00:16:41;61.45;;;31.13;;
80101;SDS011;69407;44.966;19.622;2023-12-20T00:19:07;61.50;;;31.90;;
80101;SDS011;69407;44.966;19.622;2023-12-20T00:21:32;61.03;;;32.15;;
80101;SDS011;69407;44.966;19.622;2023-12-20T00:23:58;58.38;;;31.60;;
80101;SDS011;69407;44.966;19.622;2023-12-20T00:26:23;57.65;;;30.33;;
80101;SDS011;69407;44.966;19.622;2023-12-20T00:28:49;63.25;;;31.65;;
80101;SDS011;69407;44.966;19.622;2023-12-20T00:31:14;63.72;;;32.80;;
80101;SDS011;69407;44.966;19.622;2023-12-20T00:33:40;65.78;;;31.85;;
80101;SDS011;69407;44.966;19.622;2023-12-20T00:36:08;64.50;;;33.67;;
80101;SDS011;69407;44.966;19.622;2023-12-20T00:38:34;69.95;;;33.47;;
80101;SDS011;69407;44.966;19.622;2023-12-20T00:41:00;65.75;;;33.90;;
80101;SDS011;69407;44.966;19.622;2023-12-20T00:43:25;71.13;;;34.80;;
80101;SDS011;69407;44.966;19.622;2023-12-20T00:45:51;71.57;;;36.85;;
80101;SDS011;69407;44.966;19.622;2023-12-20T00:48:17;70.55;;;33.25;;
80101;SDS011;69407;44.966;19.622;2023-12-20T00:50:44;66.38;;;32.60;;
80101;SDS011;69407;44.966;19.622;2023-12-20T00:53:09;61.92;;;33.80;;
80101;SDS011;69407;44.966;19.622;2023-12-20T00:55:34;60.25;;;31.80;;
80101;SDS011;69407;44.966;19.622;2023-12-20T00:58:00;65.90;;;32.75;;
80101;SDS011;69407;44.966;19.622;2023-12-20T01:00:25;67.72;;;35.33;;
80101;SDS011;69407;44.966;19.622;2023-12-20T01:02:51;71.80;;;35.30;;
80101;SDS011;69407;44.966;19.622;2023-12-20T01:05:17;66.40;;;32.22;;
80101;SDS011;69407;44.966;19.622;2023-12-20T01:07:43;66.72;;;34.47;;
80101;SDS011;69407;44.966;19.622;2023-12-20T01:10:08;69.82;;;36.10;;
80101;SDS011;69407;44.966;19.622;2023-12-20T01:12:35;84.63;;;41.55;;
80101;SDS011;69407;44.966;19.622;2023-12-20T01:15:02;91.45;;;44.40;;
80101;SDS011;69407;44.966;19.622;2023-12-20T01:17:27;90.25;;;44.65;;
80101;SDS011;69407;44.966;19.622;2023-12-20T01:19:53;95.60;;;44.25;;
80101;SDS011;69407;44.966;19.622;2023-12-20T01:22:18;94.55;;;45.63;;
80101;SDS011;69407;44.966;19.622;2023-12-20T01:24:44;102.57;;;46.78;;
80101;SDS011;69407;44.966;19.622;2023-12-20T01:27:09;104.30;;;48.08;;
80101;SDS011;69407;44.966;19.622;2023-12-20T01:29:35;107.35;;;47.85;;
80101;SDS011;69407;44.966;19.622;2023-12-20T01:32:00;94.88;;;44.45;;
80101;SDS011;69407;44.966;19.622;2023-12-20T01:34:26;104.28;;;48.60;;
80101;SDS011;69407;44.966;19.622;2023-12-20T01:36:51;106.95;;;48.13;;
80101;SDS011;69407;44.966;19.622;2023-12-20T01:39:17;118.65;;;52.22;;
80101;SDS011;69407;44.966;19.622;2023-12-20T01:41:43;107.72;;;47.78;;
80101;SDS011;69407;44.966;19.622;2023-12-20T01:44:08;111.10;;;47.47;;
80101;SDS011;69407;44.966;19.622;2023-12-20T01:46:34;111.85;;;48.78;;
80101;SDS011;69407;44.966;19.622;2023-12-20T01:48:59;96.53;;;44.40;;
80101;SDS011;69407;44.966;19.622;2023-12-20T01:51:25;91.35;;;42.72;;
80101;SDS011;69407;44.966;19.622;2023-12-20T01:53:52;85.95;;;40.83;;
80101;SDS011;69407;44.966;19.622;2023-12-20T01:56:19;89.28;;;42.35;;
80101;SDS011;69407;44.966;19.622;2023-12-20T01:58:45;82.78;;;41.75;;
80101;SDS011;69407;44.966;19.622;2023-12-20T02:01:12;87.25;;;41.53;;
80101;SDS011;69407;44.966;19.622;2023-12-20T02:03:39;84.90;;;40.22;;
80101;SDS011;69407;44.966;19.622;2023-12-20T02:06:09;86.95;;;39.33;;
80101;SDS011;69407;44.966;19.622;2023-12-20T02:08:35;77.88;;;39.30;;
80101;SDS011;69407;44.966;19.622;2023-12-20T02:11:01;80.35;;;42.38;;
80101;SDS011;69407;44.966;19.622;2023-12-20T02:13:27;91.88;;;42.85;;
80101;SDS011;69407;44.966;19.622;2023-12-20T02:15:52;102.93;;;45.28;;
80101;SDS011;69407;44.966;19.622;2023-12-20T02:18:19;96.10;;;43.80;;
80101;SDS011;69407;44.966;19.622;2023-12-20T02:20:45;115.85;;;48.50;;
80101;SDS011;69407;44.966;19.622;2023-12-20T02:23:10;103.82;;;45.38;;
80101;SDS011;69407;44.966;19.622;2023-12-20T02:25:36;112.90;;;49.70;;
80101;SDS011;69407;44.966;19.622;2023-12-20T02:28:02;106.22;;;43.75;;
80101;SDS011;69407;44.966;19.622;2023-12-20T02:30:28;110.18;;;45.72;;
80101;SDS011;69407;44.966;19.622;2023-12-20T02:32:54;116.90;;;45.90;;
80101;SDS011;69407;44.966;19.622;2023-12-20T02:35:19;112.65;;;47.92;;
80101;SDS011;69407;44.966;19.622;2023-12-20T02:37:45;108.50;;;46.22;;
80101;SDS011;69407;44.966;19.622;2023-12-20T02:40:11;107.30;;;46.13;;
80101;SDS011;69407;44.966;19.622;2023-12-20T02:42:36;143.88;;;58.85;;
80101;SDS011;69407;44.966;19.622;2023-12-20T02:45:02;134.07;;;56.90;;
80101;SDS011;69407;44.966;19.622;2023-12-20T02:47:27;152.77;;;59.95;;
80101;SDS011;69407;44.966;19.622;2023-12-20T02:49:54;148.75;;;61.38;;
80101;SDS011;69407;44.966;19.622;2023-12-20T02:52:20;142.18;;;60.20;;
80101;SDS011;69407;44.966;19.622;2023-12-20T02:54:46;144.88;;;60.40;;
80101;SDS011;69407;44.966;19.622;2023-12-20T02:57:11;132.85;;;55.58;;
80101;SDS011;69407;44.966;19.622;2023-12-20T02:59:37;133.88;;;57.10;;
80101;SDS011;69407;44.966;19.622;2023-12-20T03:02:02;129.50;;;55.75;;
80101;SDS011;69407;44.966;19.622;2023-12-20T03:04:28;121.47;;;55.08;;
80101;SDS011;69407;44.966;19.622;2023-12-20T03:06:53;116.07;;;53.97;;
80101;SDS011;69407;44.966;19.622;2023-12-20T03:09:19;117.10;;;53.67;;
80101;SDS011;69407;44.966;19.622;2023-12-20T03:11:44;119.28;;;52.20;;
80101;SDS011;69407;44.966;19.622;2023-12-20T03:14:10;114.07;;;52.65;;
80101;SDS011;69407;44.966;19.622;2023-12-20T03:16:35;114.63;;;53.28;;
80101;SDS011;69407;44.966;19.622;2023-12-20T03:19:00;120.10;;;53.45;;
80101;SDS011;69407;44.966;19.622;2023-12-20T03:21:26;114.55;;;52.63;;
80101;SDS011;69407;44.966;19.622;2023-12-20T03:23:51;121.00;;;53.78;;
80101;SDS011;69407;44.966;19.622;2023-12-20T03:26:17;112.47;;;51.42;;
80101;SDS011;69407;44.966;19.622;2023-12-20T03:28:44;113.47;;;48.13;;
80101;SDS011;69407;44.966;19.622;2023-12-20T03:31:09;109.68;;;47.55;;
80101;SDS011;69407;44.966;19.622;2023-12-20T03:33:35;103.03;;;48.22;;
80101;SDS011;69407;44.966;19.622;2023-12-20T03:36:01;91.45;;;44.45;;
80101;SDS011;69407;44.966;19.622;2023-12-20T03:38:26;100.97;;;46.25;;
80101;SDS011;69407;44.966;19.622;2023-12-20T03:40:52;103.03;;;46.65;;
80101;SDS011;69407;44.966;19.622;2023-12-20T03:43:17;95.97;;;45.97;;
80101;SDS011;69407;44.966;19.622;2023-12-20T03:45:43;102.55;;;44.67;;
80101;SDS011;69407;44.966;19.622;2023-12-20T03:48:08;102.15;;;47.00;;
80101;SDS011;69407;44.966;19.622;2023-12-20T03:50:34;95.88;;;44.13;;
80101;SDS011;69407;44.966;19.622;2023-12-20T03:53:00;94.13;;;43.67;;
80101;SDS011;69407;44.966;19.622;2023-12-20T03:55:25;99.60;;;45.28;;
80101;SDS011;69407;44.966;19.622;2023-12-20T03:57:51;98.30;;;43.92;;
80101;SDS011;69407;44.966;19.622;2023-12-20T04:00:16;102.40;;;45.17;;
80101;SDS011;69407;44.966;19.622;2023-12-20T04:02:42;99.97;;;46.42;;
80101;SDS011;69407;44.966;19.622;2023-12-20T04:05:08;107.88;;;47.42;;
80101;SDS011;69407;44.966;19.622;2023-12-20T04:07:37;173.05;;;55.08;;
80101;SDS011;69407;44.966;19.622;2023-12-20T04:10:03;148.57;;;54.38;;
80101;SDS011;69407;44.966;19.622;2023-12-20T04:12:30;234.93;;;58.63;;
80101;SDS011;69407;44.966;19.622;2023-12-20T04:14:56;154.13;;;52.95;;
80101;SDS011;69407;44.966;19.622;2023-12-20T04:17:22;194.63;;;58.20;;
80101;SDS011;69407;44.966;19.622;2023-12-20T04:19:48;239.90;;;57.40;;
80101;SDS011;69407;44.966;19.622;2023-12-20T04:22:14;207.63;;;60.88;;
80101;SDS011;69407;44.966;19.622;2023-12-20T04:24:39;220.68;;;58.15;;
80101;SDS011;69407;44.966;19.622;2023-12-20T04:27:07;238.93;;;55.67;;
80101;SDS011;69407;44.966;19.622;2023-12-20T04:29:33;177.27;;;54.25;;
80101;SDS011;69407;44.966;19.622;2023-12-20T04:31:58;263.95;;;62.65;;
80101;SDS011;69407;44.966;19.622;2023-12-20T04:34:24;221.77;;;56.22;;
80101;SDS011;69407;44.966;19.622;2023-12-20T04:36:49;331.05;;;59.47;;
80101;SDS011;69407;44.966;19.622;2023-12-20T04:39:15;197.00;;;52.17;;
80101;SDS011;69407;44.966;19.622;2023-12-20T04:41:41;408.85;;;63.67;;
80101;SDS011;69407;44.966;19.622;2023-12-20T04:44:06;393.08;;;58.20;;
80101;SDS011;69407;44.966;19.622;2023-12-20T04:46:32;260.45;;;45.30;;
80101;SDS011;69407;44.966;19.622;2023-12-20T04:48:57;330.98;;;50.63;;
80101;SDS011;69407;44.966;19.622;2023-12-20T04:51:23;208.15;;;44.10;;
80101;SDS011;69407;44.966;19.622;2023-12-20T04:53:48;275.67;;;48.22;;
80101;SDS011;69407;44.966;19.622;2023-12-20T04:56:14;251.55;;;51.60;;
80101;SDS011;69407;44.966;19.622;2023-12-20T04:58:39;310.20;;;53.33;;
80101;SDS011;69407;44.966;19.622;2023-12-20T05:01:08;289.90;;;51.22;;
80101;SDS011;69407;44.966;19.622;2023-12-20T05:03:34;256.48;;;43.78;;
80101;SDS011;69407;44.966;19.622;2023-12-20T05:06:00;236.18;;;46.42;;
80101;SDS011;69407;44.966;19.622;2023-12-20T05:08:25;233.23;;;48.35;;
80101;SDS011;69407;44.966;19.622;2023-12-20T05:10:54;268.35;;;47.28;;
80101;SDS011;69407;44.966;19.622;2023-12-20T05:13:20;224.88;;;45.60;;
80101;SDS011;69407;44.966;19.622;2023-12-20T05:15:46;193.55;;;40.92;;
80101;SDS011;69407;44.966;19.622;2023-12-20T05:18:11;154.23;;;39.45;;
80101;SDS011;69407;44.966;19.622;2023-12-20T05:20:37;173.57;;;40.85;;
80101;SDS011;69407;44.966;19.622;2023-12-20T05:23:03;193.70;;;40.80;;
80101;SDS011;69407;44.966;19.622;2023-12-20T05:25:29;175.98;;;36.78;;
80101;SDS011;69407;44.966;19.622;2023-12-20T05:27:54;181.02;;;36.92;;
80101;SDS011;69407;44.966;19.622;2023-12-20T05:30:21;202.90;;;38.92;;
80101;SDS011;69407;44.966;19.622;2023-12-20T05:32:46;239.98;;;42.08;;
80101;SDS011;69407;44.966;19.622;2023-12-20T05:35:12;271.25;;;45.65;;
80101;SDS011;69407;44.966;19.622;2023-12-20T05:37:37;296.70;;;44.75;;
80101;SDS011;69407;44.966;19.622;2023-12-20T05:40:03;283.70;;;45.33;;
80101;SDS011;69407;44.966;19.622;2023-12-20T05:42:29;323.25;;;50.72;;
80101;SDS011;69407;44.966;19.622;2023-12-20T05:44:55;221.30;;;49.00;;
80101;SDS011;69407;44.966;19.622;2023-12-20T05:47:20;281.80;;;48.85;;
80101;SDS011;69407;44.966;19.622;2023-12-20T05:49:46;241.68;;;48.85;;
80101;SDS011;69407;44.966;19.622;2023-12-20T05:52:11;216.48;;;40.47;;
80101;SDS011;69407;44.966;19.622;2023-12-20T05:54:37;175.75;;;38.17;;
80101;SDS011;69407;44.966;19.622;2023-12-20T05:57:02;126.22;;;37.42;;
80101;SDS011;69407;44.966;19.622;2023-12-20T05:59:28;153.20;;;37.78;;
80101;SDS011;69407;44.966;19.622;2023-12-20T06:01:53;122.25;;;36.13;;
80101;SDS011;69407;44.966;19.622;2023-12-20T06:04:19;122.55;;;38.28;;
80101;SDS011;69407;44.966;19.622;2023-12-20T06:06:44;172.73;;;42.85;;
80101;SDS011;69407;44.966;19.622;2023-12-20T06:09:10;155.23;;;45.88;;
80101;SDS011;69407;44.966;19.622;2023-12-20T06:11:36;130.50;;;48.40;;
80101;SDS011;69407;44.966;19.622;2023-12-20T06:14:01;180.73;;;53.28;;
80101;SDS011;69407;44.966;19.622;2023-12-20T06:16:26;353.30;;;97.95;;
80101;SDS011;69407;44.966;19.622;2023-12-20T06:18:52;406.70;;;109.53;;
80101;SDS011;69407;44.966;19.622;2023-12-20T06:21:17;221.32;;;67.55;;
80101;SDS011;69407;44.966;19.622;2023-12-20T06:23:43;220.35;;;69.72;;
80101;SDS011;69407;44.966;19.622;2023-12-20T06:26:08;349.30;;;96.18;;
80101;SDS011;69407;44.966;19.622;2023-12-20T06:28:34;324.50;;;93.47;;
80101;SDS011;69407;44.966;19.622;2023-12-20T06:30:59;354.65;;;89.13;;
80101;SDS011;69407;44.966;19.622;2023-12-20T06:33:25;343.40;;;90.22;;
80101;SDS011;69407;44.966;19.622;2023-12-20T06:35:51;371.77;;;87.18;;
80101;SDS011;69407;44.966;19.622;2023-12-20T06:38:17;322.75;;;86.85;;
80101;SDS011;69407;44.966;19.622;2023-12-20T06:40:43;253.30;;;81.75;;
80101;SDS011;69407;44.966;19.622;2023-12-20T06:43:09;317.77;;;82.85;;
80101;SDS011;69407;44.966;19.622;2023-12-20T06:45:35;314.08;;;86.95;;
80101;SDS011;69407;44.966;19.622;2023-12-20T06:48:00;274.17;;;84.45;;
80101;SDS011;69407;44.966;19.622;2023-12-20T06:50:26;300.60;;;79.75;;
80101;SDS011;69407;44.966;19.622;2023-12-20T06:52:52;229.05;;;66.60;;
80101;SDS011;69407;44.966;19.622;2023-12-20T06:55:18;229.25;;;63.58;;
80101;SDS011;69407;44.966;19.622;2023-12-20T06:57:43;222.55;;;63.55;;
80101;SDS011;69407;44.966;19.622;2023-12-20T07:00:10;137.10;;;48.47;;
80101;SDS011;69407;44.966;19.622;2023-12-20T07:02:36;160.60;;;43.55;;
80101;SDS011;69407;44.966;19.622;2023-12-20T07:05:02;208.43;;;45.20;;
80101;SDS011;69407;44.966;19.622;2023-12-20T07:07:27;182.52;;;44.22;;
80101;SDS011;69407;44.966;19.622;2023-12-20T07:09:53;194.43;;;44.67;;
80101;SDS011;69407;44.966;19.622;2023-12-20T07:12:18;184.43;;;47.53;;
80101;SDS011;69407;44.966;19.622;2023-12-20T07:14:44;203.38;;;51.83;;
80101;SDS011;69407;44.966;19.622;2023-12-20T07:17:10;280.65;;;61.72;;
80101;SDS011;69407;44.966;19.622;2023-12-20T07:19:38;313.08;;;66.75;;
80101;SDS011;69407;44.966;19.622;2023-12-20T07:22:05;414.95;;;94.13;;
80101;SDS011;69407;44.966;19.622;2023-12-20T07:24:31;233.52;;;67.75;;
80101;SDS011;69407;44.966;19.622;2023-12-20T07:26:57;204.40;;;55.95;;
80101;SDS011;69407;44.966;19.622;2023-12-20T07:29:22;266.65;;;58.17;;
80101;SDS011;69407;44.966;19.622;2023-12-20T07:31:47;160.63;;;47.63;;
80101;SDS011;69407;44.966;19.622;2023-12-20T07:34:13;239.68;;;55.92;;
80101;SDS011;69407;44.966;19.622;2023-12-20T07:36:38;246.70;;;59.92;;
80101;SDS011;69407;44.966;19.622;2023-12-20T07:39:04;359.50;;;85.80;;
80101;SDS011;69407;44.966;19.622;2023-12-20T07:41:30;240.82;;;65.93;;
80101;SDS011;69407;44.966;19.622;2023-12-20T07:43:55;228.63;;;66.80;;
80101;SDS011;69407;44.966;19.622;2023-12-20T07:46:21;246.40;;;75.38;;
80101;SDS011;69407;44.966;19.622;2023-12-20T07:48:50;182.95;;;64.38;;
80101;SDS011;69407;44.966;19.622;2023-12-20T07:51:15;231.65;;;69.88;;
80101;SDS011;69407;44.966;19.622;2023-12-20T07:53:41;165.23;;;66.32;;
80101;SDS011;69407;44.966;19.622;2023-12-20T07:56:27;176.88;;;69.95;;
80101;SDS011;69407;44.966;19.622;2023-12-20T07:58:52;197.15;;;78.75;;
80101;SDS011;69407;44.966;19.622;2023-12-20T08:01:17;175.00;;;74.88;;
80101;SDS011;69407;44.966;19.622;2023-12-20T08:03:43;154.05;;;62.33;;
80101;SDS011;69407;44.966;19.622;2023-12-20T08:06:09;169.50;;;64.70;;
80101;SDS011;69407;44.966;19.622;2023-12-20T08:08:34;135.27;;;56.25;;
80101;SDS011;69407;44.966;19.622;2023-12-20T08:11:00;161.20;;;66.28;;
80101;SDS011;69407;44.966;19.622;2023-12-20T08:13:26;139.23;;;56.50;;
80101;SDS011;69407;44.966;19.622;2023-12-20T08:15:52;114.65;;;52.28;;
80101;SDS011;69407;44.966;19.622;2023-12-20T08:18:18;130.43;;;54.83;;
80101;SDS011;69407;44.966;19.622;2023-12-20T08:20:44;227.65;;;90.70;;
80101;SDS011;69407;44.966;19.622;2023-12-20T08:23:09;177.70;;;78.57;;
80101;SDS011;69407;44.966;19.622;2023-12-20T08:25:35;253.50;;;102.55;;
80101;SDS011;69407;44.966;19.622;2023-12-20T08:28:01;135.43;;;55.70;;
80101;SDS011;69407;44.966;19.622;2023-12-20T08:30:27;129.45;;;54.05;;
80101;SDS011;69407;44.966;19.622;2023-12-20T08:32:53;120.00;;;50.08;;
80101;SDS011;69407;44.966;19.622;2023-12-20T08:35:19;100.38;;;44.42;;
80101;SDS011;69407;44.966;19.622;2023-12-20T08:37:45;121.68;;;48.58;;
80101;SDS011;69407;44.966;19.622;2023-12-20T08:40:10;115.50;;;53.38;;
80101;SDS011;69407;44.966;19.622;2023-12-20T08:42:36;123.00;;;53.60;;
80101;SDS011;69407;44.966;19.622;2023-12-20T08:45:01;110.78;;;51.55;;
80101;SDS011;69407;44.966;19.622;2023-12-20T08:47:29;94.53;;;45.15;;
80101;SDS011;69407;44.966;19.622;2023-12-20T08:49:55;95.10;;;46.05;;
80101;SDS011;69407;44.966;19.622;2023-12-20T08:52:23;89.25;;;45.50;;
80101;SDS011;69407;44.966;19.622;2023-12-20T08:54:49;92.55;;;47.08;;
80101;SDS011;69407;44.966;19.622;2023-12-20T08:57:22;96.35;;;47.03;;
80101;SDS011;69407;44.966;19.622;2023-12-20T08:59:49;105.82;;;50.47;;
80101;SDS011;69407;44.966;19.622;2023-12-20T09:02:15;106.90;;;52.58;;
80101;SDS011;69407;44.966;19.622;2023-12-20T09:04:41;108.30;;;51.97;;
80101;SDS011;69407;44.966;19.622;2023-12-20T09:07:07;90.32;;;43.15;;
80101;SDS011;69407;44.966;19.622;2023-12-20T09:09:32;87.95;;;44.92;;
80101;SDS011;69407;44.966;19.622;2023-12-20T09:11:59;113.45;;;53.95;;
80101;SDS011;69407;44.966;19.622;2023-12-20T09:14:24;106.85;;;54.20;;
80101;SDS011;69407;44.966;19.622;2023-12-20T09:16:50;118.97;;;54.50;;
80101;SDS011;69407;44.966;19.622;2023-12-20T09:19:16;120.53;;;55.60;;
80101;SDS011;69407;44.966;19.622;2023-12-20T09:21:42;103.43;;;52.83;;
80101;SDS011;69407;44.966;19.622;2023-12-20T09:24:08;109.85;;;53.53;;
80101;SDS011;69407;44.966;19.622;2023-12-20T09:26:34;110.07;;;56.25;;
80101;SDS011;69407;44.966;19.622;2023-12-20T09:29:00;108.45;;;55.35;;
80101;SDS011;69407;44.966;19.622;2023-12-20T09:31:25;112.07;;;55.05;;
80101;SDS011;69407;44.966;19.622;2023-12-20T09:33:51;122.95;;;58.53;;
80101;SDS011;69407;44.966;19.622;2023-12-20T09:36:16;120.97;;;54.83;;
80101;SDS011;69407;44.966;19.622;2023-12-20T09:38:41;97.63;;;50.33;;
80101;SDS011;69407;44.966;19.622;2023-12-20T09:41:07;103.40;;;50.75;;
80101;SDS011;69407;44.966;19.622;2023-12-20T09:43:33;84.63;;;45.65;;
80101;SDS011;69407;44.966;19.622;2023-12-20T09:46:02;67.38;;;38.75;;
80101;SDS011;69407;44.966;19.622;2023-12-20T09:48:31;69.43;;;40.05;;
80101;SDS011;69407;44.966;19.622;2023-12-20T09:50:57;71.43;;;40.97;;
80101;SDS011;69407;44.966;19.622;2023-12-20T09:53:23;74.65;;;39.55;;
80101;SDS011;69407;44.966;19.622;2023-12-20T09:55:54;78.25;;;37.83;;
80101;SDS011;69407;44.966;19.622;2023-12-20T09:58:24;78.93;;;35.03;;
80101;SDS011;69407;44.966;19.622;2023-12-20T10:00:49;71.65;;;35.03;;
80101;SDS011;69407;44.966;19.622;2023-12-20T10:03:16;85.97;;;34.22;;
80101;SDS011;69407;44.966;19.622;2023-12-20T10:05:44;77.65;;;37.33;;
80101;SDS011;69407;44.966;19.622;2023-12-20T10:08:12;86.47;;;37.15;;
80101;SDS011;69407;44.966;19.622;2023-12-20T10:10:37;97.07;;;41.92;;
80101;SDS011;69407;44.966;19.622;2023-12-20T10:13:06;77.72;;;37.75;;
80101;SDS011;69407;44.966;19.622;2023-12-20T10:15:36;93.32;;;41.88;;
80101;SDS011;69407;44.966;19.622;2023-12-20T10:18:02;84.60;;;40.17;;
80101;SDS011;69407;44.966;19.622;2023-12-20T10:20:29;80.60;;;34.10;;
80101;SDS011;69407;44.966;19.622;2023-12-20T10:22:57;80.63;;;41.80;;
80101;SDS011;69407;44.966;19.622;2023-12-20T10:25:23;88.95;;;42.92;;
80101;SDS011;69407;44.966;19.622;2023-12-20T10:27:50;85.70;;;42.67;;
80101;SDS011;69407;44.966;19.622;2023-12-20T10:30:33;82.25;;;40.10;;
80101;SDS011;69407;44.966;19.622;2023-12-20T10:32:58;79.05;;;38.92;;
80101;SDS011;69407;44.966;19.622;2023-12-20T10:35:24;83.00;;;40.78;;
80101;SDS011;69407;44.966;19.622;2023-12-20T10:37:50;76.00;;;35.92;;
80101;SDS011;69407;44.966;19.622;2023-12-20T10:40:20;81.40;;;41.60;;
80101;SDS011;69407;44.966;19.622;2023-12-20T10:42:46;83.85;;;43.33;;
80101;SDS011;69407;44.966;19.622;2023-12-20T10:45:12;89.07;;;45.05;;
80101;SDS011;69407;44.966;19.622;2023-12-20T10:47:37;101.65;;;50.22;;
80101;SDS011;69407;44.966;19.622;2023-12-20T10:50:05;110.50;;;54.40;;
80101;SDS011;69407;44.966;19.622;2023-12-20T10:52:32;107.30;;;51.40;;
80101;SDS011;69407;44.966;19.622;2023-12-20T10:55:00;106.53;;;52.33;;
80101;SDS011;69407;44.966;19.622;2023-12-20T10:57:26;108.72;;;53.78;;
80101;SDS011;69407;44.966;19.622;2023-12-20T10:59:53;96.55;;;49.15;;
80101;SDS011;69407;44.966;19.622;2023-12-20T11:02:19;110.70;;;55.05;;
80101;SDS011;69407;44.966;19.622;2023-12-20T11:05:06;105.53;;;53.95;;
80101;SDS011;69407;44.966;19.622;2023-12-20T11:07:44;98.28;;;48.40;;
80101;SDS011;69407;44.966;19.622;2023-12-20T11:10:18;98.70;;;51.03;;
80101;SDS011;69407;44.966;19.622;2023-12-20T11:13:00;96.20;;;48.90;;
80101;SDS011;69407;44.966;19.622;2023-12-20T11:15:28;99.32;;;48.33;;
80101;SDS011;69407;44.966;19.622;2023-12-20T11:17:55;111.45;;;55.15;;
80101;SDS011;69407;44.966;19.622;2023-12-20T11:20:24;104.13;;;52.58;;
80101;SDS011;69407;44.966;19.622;2023-12-20T11:23:00;85.00;;;44.28;;
80101;SDS011;69407;44.966;19.622;2023-12-20T11:25:25;89.13;;;47.63;;
80101;SDS011;69407;44.966;19.622;2023-12-20T11:28:08;92.03;;;46.92;;
80101;SDS011;69407;44.966;19.622;2023-12-20T11:31:08;75.72;;;41.28;;
80101;SDS011;69407;44.966;19.622;2023-12-20T11:33:31;78.75;;;41.28;;
80101;SDS011;69407;44.966;19.622;2023-12-20T11:36:01;80.18;;;43.10;;
80101;SDS011;69407;44.966;19.622;2023-12-20T11:38:27;77.70;;;42.70;;
80101;SDS011;69407;44.966;19.622;2023-12-20T11:41:00;92.13;;;47.72;;
80101;SDS011;69407;44.966;19.622;2023-12-20T11:43:32;96.13;;;47.97;;
80101;SDS011;69407;44.966;19.622;2023-12-20T11:46:06;105.35;;;54.05;;
80101;SDS011;69407;44.966;19.622;2023-12-20T11:48:34;106.53;;;51.78;;
80101;SDS011;69407;44.966;19.622;2023-12-20T11:51:08;103.47;;;51.83;;
80101;SDS011;69407;44.966;19.622;2023-12-20T11:53:35;103.85;;;54.08;;
80101;SDS011;69407;44.966;19.622;2023-12-20T11:56:02;99.25;;;47.60;;
80101;SDS011;69407;44.966;19.622;2023-12-20T11:58:28;97.53;;;47.83;;
80101;SDS011;69407;44.966;19.622;2023-12-20T12:00:54;90.85;;;48.67;;
80101;SDS011;69407;44.966;19.622;2023-12-20T12:03:20;94.45;;;47.13;;
80101;SDS011;69407;44.966;19.622;2023-12-20T12:05:47;93.43;;;47.45;;
80101;SDS011;69407;44.966;19.622;2023-12-20T12:08:13;92.82;;;45.42;;
80101;SDS011;69407;44.966;19.622;2023-12-20T12:10:39;90.82;;;48.47;;
80101;SDS011;69407;44.966;19.622;2023-12-20T12:13:04;87.35;;;46.80;;
80101;SDS011;69407;44.966;19.622;2023-12-20T12:15:30;100.55;;;51.45;;
80101;SDS011;69407;44.966;19.622;2023-12-20T12:17:56;99.90;;;49.05;;
80101;SDS011;69407;44.966;19.622;2023-12-20T12:20:22;93.63;;;48.75;;
80101;SDS011;69407;44.966;19.622;2023-12-20T12:22:58;98.63;;;49.33;;
80101;SDS011;69407;44.966;19.622;2023-12-20T12:25:24;104.28;;;52.22;;
80101;SDS011;69407;44.966;19.622;2023-12-20T12:27:50;96.72;;;47.78;;
80101;SDS011;69407;44.966;19.622;2023-12-20T12:30:16;86.68;;;45.17;;
80101;SDS011;69407;44.966;19.622;2023-12-20T12:32:43;90.35;;;45.92;;
80101;SDS011;69407;44.966;19.622;2023-12-20T12:35:09;100.15;;;49.88;;
80101;SDS011;69407;44.966;19.622;2023-12-20T12:37:37;102.50;;;48.70;;
80101;SDS011;69407;44.966;19.622;2023-12-20T12:40:05;104.95;;;50.25;;
80101;SDS011;69407;44.966;19.622;2023-12-20T12:42:32;95.53;;;47.53;;
80101;SDS011;69407;44.966;19.622;2023-12-20T12:44:58;95.20;;;46.50;;
80101;SDS011;69407;44.966;19.622;2023-12-20T12:47:23;91.72;;;43.05;;
80101;SDS011;69407;44.966;19.622;2023-12-20T12:49:49;82.15;;;38.50;;
80101;SDS011;69407;44.966;19.622;2023-12-20T12:52:16;103.82;;;48.20;;
80101;SDS011;69407;44.966;19.622;2023-12-20T12:54:42;98.80;;;43.17;;
80101;SDS011;69407;44.966;19.622;2023-12-20T12:57:08;110.68;;;48.50;;
80101;SDS011;69407;44.966;19.622;2023-12-20T12:59:33;104.32;;;48.20;;
80101;SDS011;69407;44.966;19.622;2023-12-20T13:01:59;106.47;;;50.10;;
80101;SDS011;69407;44.966;19.622;2023-12-20T13:04:25;96.70;;;44.85;;
80101;SDS011;69407;44.966;19.622;2023-12-20T13:06:50;94.13;;;42.45;;
80101;SDS011;69407;44.966;19.622;2023-12-20T13:09:16;91.05;;;41.60;;
80101;SDS011;69407;44.966;19.622;2023-12-20T13:11:42;90.05;;;40.78;;
80101;SDS011;69407;44.966;19.622;2023-12-20T13:14:07;87.93;;;42.88;;
80101;SDS011;69407;44.966;19.622;2023-12-20T13:16:35;93.07;;;46.67;;
80101;SDS011;69407;44.966;19.622;2023-12-20T13:19:01;101.82;;;48.13;;
80101;SDS011;69407;44.966;19.622;2023-12-20T13:21:26;97.13;;;44.70;;
80101;SDS011;69407;44.966;19.622;2023-12-20T13:23:52;123.18;;;59.40;;
80101;SDS011;69407;44.966;19.622;2023-12-20T13:26:18;112.95;;;55.42;;
80101;SDS011;69407;44.966;19.622;2023-12-20T13:28:44;96.75;;;47.28;;
80101;SDS011;69407;44.966;19.622;2023-12-20T13:31:10;109.55;;;51.13;;
80101;SDS011;69407;44.966;19.622;2023-12-20T13:33:35;109.05;;;50.95;;
80101;SDS011;69407;44.966;19.622;2023-12-20T13:36:01;108.07;;;47.25;;
80101;SDS011;69407;44.966;19.622;2023-12-20T13:38:26;95.00;;;43.30;;
80101;SDS011;69407;44.966;19.622;2023-12-20T13:40:52;109.65;;;50.58;;
80101;SDS011;69407;44.966;19.622;2023-12-20T13:43:17;98.10;;;43.95;;
80101;SDS011;69407;44.966;19.622;2023-12-20T13:45:46;104.18;;;45.45;;
80101;SDS011;69407;44.966;19.622;2023-12-20T13:48:11;116.63;;;49.70;;
80101;SDS011;69407;44.966;19.622;2023-12-20T13:50:37;114.80;;;48.80;;
80101;SDS011;69407;44.966;19.622;2023-12-20T13:53:02;113.20;;;49.33;;
80101;SDS011;69407;44.966;19.622;2023-12-20T13:55:29;112.65;;;49.13;;
80101;SDS011;69407;44.966;19.622;2023-12-20T13:57:55;102.68;;;41.75;;